sensor_id;sensor_type;location;lat;lon;timestamp;temperature;humidity
24518;DHT22;12678;51.336;12.406;2022-08-30T00:02:01;17.30;99.90
24518;DHT22;12678;51.336;12.406;2022-08-30T00:04:27;17.60;99.90
24518;DHT22;12678;51.336;12.406;2022-08-30T00:06:52;17.90;99.90
24518;DHT22;12678;51.336;12.406;2022-08-30T00:09:18;18.00;99.90
24518;DHT22;12678;51.336;12.406;2022-08-30T00:11:43;18.10;99.90
24518;DHT22;12678;51.336;12.406;2022-08-30T00:14:09;17.90;99.90
24518;DHT22;12678;51.336;12.406;2022-08-30T00:16:34;17.70;99.90
24518;DHT22;12678;51.336;12.406;2022-08-30T00:18:59;17.70;99.90
24518;DHT22;12678;51.336;12.406;2022-08-30T00:21:26;17.40;99.90
24518;DHT22;12678;51.336;12.406;2022-08-30T00:23:52;17.30;99.90
24518;DHT22;12678;51.336;12.406;2022-08-30T00:26:17;17.10;99.90
24518;DHT22;12678;51.336;12.406;2022-08-30T00:28:43;17.00;99.90
24518;DHT22;12678;51.336;12.406;2022-08-30T00:31:08;16.90;99.90
24518;DHT22;12678;51.336;12.406;2022-08-30T00:33:34;16.80;99.90
24518;DHT22;12678;51.336;12.406;2022-08-30T00:36:00;16.70;99.90
24518;DHT22;12678;51.336;12.406;2022-08-30T00:38:26;16.70;99.90
24518;DHT22;12678;51.336;12.406;2022-08-30T00:40:51;16.70;99.90
24518;DHT22;12678;51.336;12.406;2022-08-30T00:43:24;16.60;99.90
24518;DHT22;12678;51.336;12.406;2022-08-30T00:45:50;16.50;99.90
24518;DHT22;12678;51.336;12.406;2022-08-30T00:48:15;16.50;99.90
24518;DHT22;12678;51.336;12.406;2022-08-30T00:50:42;16.70;99.90
24518;DHT22;12678;51.336;12.406;2022-08-30T00:53:10;17.30;99.90
24518;DHT22;12678;51.336;12.406;2022-08-30T00:55:38;17.80;99.90
24518;DHT22;12678;51.336;12.406;2022-08-30T00:58:04;17.90;99.90
24518;DHT22;12678;51.336;12.406;2022-08-30T01:00:31;18.10;99.90
24518;DHT22;12678;51.336;12.406;2022-08-30T01:02:57;18.40;99.90
24518;DHT22;12678;51.336;12.406;2022-08-30T01:05:22;18.40;99.90
24518;DHT22;12678;51.336;12.406;2022-08-30T01:07:48;17.90;99.90
24518;DHT22;12678;51.336;12.406;2022-08-30T01:10:14;17.60;99.90
24518;DHT22;12678;51.336;12.406;2022-08-30T01:12:39;17.30;99.90
24518;DHT22;12678;51.336;12.406;2022-08-30T01:15:05;17.20;99.90
24518;DHT22;12678;51.336;12.406;2022-08-30T01:17:32;17.00;99.90
24518;DHT22;12678;51.336;12.406;2022-08-30T01:20:04;16.80;99.90
24518;DHT22;12678;51.336;12.406;2022-08-30T01:24:56;16.70;99.90
24518;DHT22;12678;51.336;12.406;2022-08-30T01:27:23;16.50;99.90
24518;DHT22;12678;51.336;12.406;2022-08-30T01:29:49;16.50;99.90
24518;DHT22;12678;51.336;12.406;2022-08-30T01:32:18;16.60;99.90
24518;DHT22;12678;51.336;12.406;2022-08-30T01:34:45;16.50;99.90
24518;DHT22;12678;51.336;12.406;2022-08-30T01:37:14;16.30;99.90
24518;DHT22;12678;51.336;12.406;2022-08-30T01:39:42;16.20;99.90
24518;DHT22;12678;51.336;12.406;2022-08-30T01:42:09;16.20;99.90
24518;DHT22;12678;51.336;12.406;2022-08-30T01:44:34;16.20;99.90
24518;DHT22;12678;51.336;12.406;2022-08-30T01:47:00;16.20;99.90
24518;DHT22;12678;51.336;12.406;2022-08-30T01:49:25;16.20;99.90
24518;DHT22;12678;51.336;12.406;2022-08-30T01:51:51;16.10;99.90
24518;DHT22;12678;51.336;12.406;2022-08-30T01:54:16;16.00;99.90
24518;DHT22;12678;51.336;12.406;2022-08-30T01:56:42;16.20;99.90
24518;DHT22;12678;51.336;12.406;2022-08-30T01:59:07;16.50;99.90
24518;DHT22;12678;51.336;12.406;2022-08-30T02:01:33;16.50;99.90
24518;DHT22;12678;51.336;12.406;2022-08-30T02:04:01;16.70;99.90
24518;DHT22;12678;51.336;12.406;2022-08-30T02:06:27;16.70;99.90
24518;DHT22;12678;51.336;12.406;2022-08-30T02:08:52;16.50;99.90
24518;DHT22;12678;51.336;12.406;2022-08-30T02:11:18;16.30;99.90
24518;DHT22;12678;51.336;12.406;2022-08-30T02:13:44;16.00;99.90
24518;DHT22;12678;51.336;12.406;2022-08-30T02:16:11;15.90;99.90
24518;DHT22;12678;51.336;12.406;2022-08-30T02:18:37;15.80;99.90
24518;DHT22;12678;51.336;12.406;2022-08-30T02:21:03;15.90;99.90
24518;DHT22;12678;51.336;12.406;2022-08-30T02:23:29;15.80;99.90
24518;DHT22;12678;51.336;12.406;2022-08-30T02:25:55;15.60;99.90
24518;DHT22;12678;51.336;12.406;2022-08-30T02:28:20;15.60;99.90
24518;DHT22;12678;51.336;12.406;2022-08-30T02:30:46;15.50;99.90
24518;DHT22;12678;51.336;12.406;2022-08-30T02:33:12;15.50;99.90
24518;DHT22;12678;51.336;12.406;2022-08-30T02:35:38;15.60;99.90
24518;DHT22;12678;51.336;12.406;2022-08-30T02:38:03;15.70;99.90
24518;DHT22;12678;51.336;12.406;2022-08-30T02:40:29;16.00;99.90
24518;DHT22;12678;51.336;12.406;2022-08-30T02:42:55;16.10;99.90
24518;DHT22;12678;51.336;12.406;2022-08-30T02:45:21;16.10;99.90
24518;DHT22;12678;51.336;12.406;2022-08-30T02:47:47;16.20;99.90
24518;DHT22;12678;51.336;12.406;2022-08-30T02:50:12;16.00;99.90
24518;DHT22;12678;51.336;12.406;2022-08-30T02:52:38;15.90;99.90
24518;DHT22;12678;51.336;12.406;2022-08-30T02:55:04;15.90;99.90
24518;DHT22;12678;51.336;12.406;2022-08-30T02:57:30;15.70;99.90
24518;DHT22;12678;51.336;12.406;2022-08-30T02:59:55;15.60;99.90
24518;DHT22;12678;51.336;12.406;2022-08-30T03:02:21;15.80;99.90
24518;DHT22;12678;51.336;12.406;2022-08-30T03:04:47;15.80;99.90
24518;DHT22;12678;51.336;12.406;2022-08-30T03:07:13;15.80;99.90
24518;DHT22;12678;51.336;12.406;2022-08-30T03:09:39;15.90;99.90
24518;DHT22;12678;51.336;12.406;2022-08-30T03:12:05;15.90;99.90
24518;DHT22;12678;51.336;12.406;2022-08-30T03:14:32;15.80;99.90
24518;DHT22;12678;51.336;12.406;2022-08-30T03:17:00;15.80;99.90
24518;DHT22;12678;51.336;12.406;2022-08-30T03:19:26;15.70;99.90
24518;DHT22;12678;51.336;12.406;2022-08-30T03:21:52;15.50;99.90
24518;DHT22;12678;51.336;12.406;2022-08-30T03:24:18;15.50;99.90
24518;DHT22;12678;51.336;12.406;2022-08-30T03:26:43;15.50;99.90
24518;DHT22;12678;51.336;12.406;2022-08-30T03:29:09;15.50;99.90
24518;DHT22;12678;51.336;12.406;2022-08-30T03:31:34;15.50;99.90
24518;DHT22;12678;51.336;12.406;2022-08-30T03:34:01;15.50;99.90
24518;DHT22;12678;51.336;12.406;2022-08-30T03:36:27;15.80;99.90
24518;DHT22;12678;51.336;12.406;2022-08-30T03:38:53;15.90;99.90
24518;DHT22;12678;51.336;12.406;2022-08-30T03:41:18;16.20;99.90
24518;DHT22;12678;51.336;12.406;2022-08-30T03:43:44;16.50;99.90
24518;DHT22;12678;51.336;12.406;2022-08-30T03:46:11;17.00;99.90
24518;DHT22;12678;51.336;12.406;2022-08-30T03:48:37;17.30;99.90
24518;DHT22;12678;51.336;12.406;2022-08-30T03:51:03;17.10;99.90
24518;DHT22;12678;51.336;12.406;2022-08-30T03:53:29;17.10;99.90
24518;DHT22;12678;51.336;12.406;2022-08-30T03:55:54;17.10;99.90
24518;DHT22;12678;51.336;12.406;2022-08-30T03:58:20;16.90;99.90
24518;DHT22;12678;51.336;12.406;2022-08-30T04:00:45;16.60;99.90
24518;DHT22;12678;51.336;12.406;2022-08-30T04:03:11;16.40;99.90
24518;DHT22;12678;51.336;12.406;2022-08-30T04:05:36;16.10;99.90
24518;DHT22;12678;51.336;12.406;2022-08-30T04:08:02;15.90;99.90
24518;DHT22;12678;51.336;12.406;2022-08-30T04:10:28;16.10;99.90
24518;DHT22;12678;51.336;12.406;2022-08-30T04:12:53;16.50;99.90
24518;DHT22;12678;51.336;12.406;2022-08-30T04:15:18;16.50;99.90
24518;DHT22;12678;51.336;12.406;2022-08-30T04:17:45;17.00;99.90
24518;DHT22;12678;51.336;12.406;2022-08-30T04:20:10;17.30;99.90
24518;DHT22;12678;51.336;12.406;2022-08-30T04:22:36;17.00;99.90
24518;DHT22;12678;51.336;12.406;2022-08-30T04:25:02;16.90;99.90
24518;DHT22;12678;51.336;12.406;2022-08-30T04:27:28;17.00;99.90
24518;DHT22;12678;51.336;12.406;2022-08-30T04:29:53;17.20;99.90
24518;DHT22;12678;51.336;12.406;2022-08-30T04:32:20;16.90;99.90
24518;DHT22;12678;51.336;12.406;2022-08-30T04:34:46;16.60;99.90
24518;DHT22;12678;51.336;12.406;2022-08-30T04:37:11;16.50;99.90
24518;DHT22;12678;51.336;12.406;2022-08-30T04:39:37;16.30;99.90
24518;DHT22;12678;51.336;12.406;2022-08-30T04:42:03;16.30;99.90
24518;DHT22;12678;51.336;12.406;2022-08-30T04:44:30;16.20;99.90
24518;DHT22;12678;51.336;12.406;2022-08-30T04:46:56;16.20;99.90
24518;DHT22;12678;51.336;12.406;2022-08-30T04:49:21;16.70;99.90
24518;DHT22;12678;51.336;12.406;2022-08-30T04:51:47;17.60;99.90
24518;DHT22;12678;51.336;12.406;2022-08-30T04:54:12;18.40;99.90
24518;DHT22;12678;51.336;12.406;2022-08-30T04:56:38;18.80;99.90
24518;DHT22;12678;51.336;12.406;2022-08-30T04:59:03;19.20;99.90
24518;DHT22;12678;51.336;12.406;2022-08-30T05:01:30;19.60;99.90
24518;DHT22;12678;51.336;12.406;2022-08-30T05:03:56;19.70;99.90
24518;DHT22;12678;51.336;12.406;2022-08-30T05:06:23;20.00;99.90
24518;DHT22;12678;51.336;12.406;2022-08-30T05:08:48;20.10;99.90
24518;DHT22;12678;51.336;12.406;2022-08-30T05:11:14;20.20;99.90
24518;DHT22;12678;51.336;12.406;2022-08-30T05:13:40;20.10;99.90
24518;DHT22;12678;51.336;12.406;2022-08-30T05:16:06;20.30;99.90
24518;DHT22;12678;51.336;12.406;2022-08-30T05:18:32;20.40;99.90
24518;DHT22;12678;51.336;12.406;2022-08-30T05:21:14;20.50;99.90
24518;DHT22;12678;51.336;12.406;2022-08-30T05:23:40;20.50;99.90
24518;DHT22;12678;51.336;12.406;2022-08-30T05:26:13;20.40;99.90
24518;DHT22;12678;51.336;12.406;2022-08-30T05:28:39;20.40;99.90
24518;DHT22;12678;51.336;12.406;2022-08-30T05:31:14;20.40;99.90
24518;DHT22;12678;51.336;12.406;2022-08-30T05:33:40;20.40;99.90
24518;DHT22;12678;51.336;12.406;2022-08-30T05:36:06;20.50;99.90
24518;DHT22;12678;51.336;12.406;2022-08-30T05:38:31;20.50;99.90
24518;DHT22;12678;51.336;12.406;2022-08-30T05:40:57;20.70;99.90
24518;DHT22;12678;51.336;12.406;2022-08-30T05:43:22;20.70;99.90
24518;DHT22;12678;51.336;12.406;2022-08-30T05:45:48;20.60;99.90
24518;DHT22;12678;51.336;12.406;2022-08-30T05:48:21;20.60;99.90
24518;DHT22;12678;51.336;12.406;2022-08-30T05:50:47;20.60;99.90
24518;DHT22;12678;51.336;12.406;2022-08-30T05:53:12;20.60;99.90
24518;DHT22;12678;51.336;12.406;2022-08-30T05:55:39;20.60;99.90
24518;DHT22;12678;51.336;12.406;2022-08-30T05:58:05;20.70;99.90
24518;DHT22;12678;51.336;12.406;2022-08-30T06:00:30;20.70;99.90
24518;DHT22;12678;51.336;12.406;2022-08-30T06:02:56;20.70;99.90
24518;DHT22;12678;51.336;12.406;2022-08-30T06:05:21;20.50;99.90
24518;DHT22;12678;51.336;12.406;2022-08-30T06:07:47;20.70;99.90
24518;DHT22;12678;51.336;12.406;2022-08-30T06:10:13;20.80;99.90
24518;DHT22;12678;51.336;12.406;2022-08-30T06:12:39;20.70;99.90
24518;DHT22;12678;51.336;12.406;2022-08-30T06:15:05;20.70;99.90
24518;DHT22;12678;51.336;12.406;2022-08-30T06:17:30;20.80;99.90
24518;DHT22;12678;51.336;12.406;2022-08-30T06:19:56;20.80;99.90
24518;DHT22;12678;51.336;12.406;2022-08-30T06:22:21;20.80;99.90
24518;DHT22;12678;51.336;12.406;2022-08-30T06:24:47;20.80;99.90
24518;DHT22;12678;51.336;12.406;2022-08-30T06:27:13;20.80;99.90
24518;DHT22;12678;51.336;12.406;2022-08-30T06:29:39;20.90;99.90
24518;DHT22;12678;51.336;12.406;2022-08-30T06:32:05;21.00;99.90
24518;DHT22;12678;51.336;12.406;2022-08-30T06:34:31;21.10;99.90
24518;DHT22;12678;51.336;12.406;2022-08-30T06:36:57;20.90;99.90
24518;DHT22;12678;51.336;12.406;2022-08-30T06:39:22;20.90;99.90
24518;DHT22;12678;51.336;12.406;2022-08-30T06:41:48;21.00;99.90
24518;DHT22;12678;51.336;12.406;2022-08-30T06:44:13;20.70;99.90
24518;DHT22;12678;51.336;12.406;2022-08-30T06:46:39;20.70;99.90
24518;DHT22;12678;51.336;12.406;2022-08-30T06:49:05;20.70;99.90
24518;DHT22;12678;51.336;12.406;2022-08-30T06:51:33;20.90;99.90
24518;DHT22;12678;51.336;12.406;2022-08-30T06:53:59;21.00;99.90
24518;DHT22;12678;51.336;12.406;2022-08-30T06:56:24;21.20;99.90
24518;DHT22;12678;51.336;12.406;2022-08-30T06:58:50;21.10;99.90
24518;DHT22;12678;51.336;12.406;2022-08-30T07:01:17;21.30;99.90
24518;DHT22;12678;51.336;12.406;2022-08-30T07:03:43;21.30;99.90
24518;DHT22;12678;51.336;12.406;2022-08-30T07:06:08;21.40;99.90
24518;DHT22;12678;51.336;12.406;2022-08-30T07:08:34;21.50;99.90
24518;DHT22;12678;51.336;12.406;2022-08-30T07:11:00;21.60;99.90
24518;DHT22;12678;51.336;12.406;2022-08-30T07:13:26;21.40;99.90
24518;DHT22;12678;51.336;12.406;2022-08-30T07:15:52;21.40;99.90
24518;DHT22;12678;51.336;12.406;2022-08-30T07:18:17;21.60;99.90
24518;DHT22;12678;51.336;12.406;2022-08-30T07:21:09;21.80;99.90
24518;DHT22;12678;51.336;12.406;2022-08-30T07:23:35;21.80;99.90
24518;DHT22;12678;51.336;12.406;2022-08-30T07:26:04;22.20;99.90
24518;DHT22;12678;51.336;12.406;2022-08-30T07:28:30;22.40;99.90
24518;DHT22;12678;51.336;12.406;2022-08-30T07:30:56;22.60;99.90
24518;DHT22;12678;51.336;12.406;2022-08-30T07:33:21;22.70;99.90
24518;DHT22;12678;51.336;12.406;2022-08-30T07:35:47;22.70;99.90
24518;DHT22;12678;51.336;12.406;2022-08-30T07:38:12;22.90;99.90
24518;DHT22;12678;51.336;12.406;2022-08-30T07:40:38;23.10;99.90
24518;DHT22;12678;51.336;12.406;2022-08-30T07:43:04;23.60;99.90
24518;DHT22;12678;51.336;12.406;2022-08-30T07:45:29;23.80;99.90
24518;DHT22;12678;51.336;12.406;2022-08-30T07:47:55;24.40;99.90
24518;DHT22;12678;51.336;12.406;2022-08-30T07:52:47;24.80;99.90
24518;DHT22;12678;51.336;12.406;2022-08-30T08:00:05;25.00;99.90
24518;DHT22;12678;51.336;12.406;2022-08-30T08:02:31;25.70;99.90
24518;DHT22;12678;51.336;12.406;2022-08-30T08:04:57;25.80;99.90
24518;DHT22;12678;51.336;12.406;2022-08-30T08:07:23;26.00;99.90
24518;DHT22;12678;51.336;12.406;2022-08-30T08:09:48;26.20;99.50
24518;DHT22;12678;51.336;12.406;2022-08-30T08:12:14;26.00;99.00
24518;DHT22;12678;51.336;12.406;2022-08-30T08:14:39;25.80;99.20
24518;DHT22;12678;51.336;12.406;2022-08-30T08:17:05;25.80;99.00
24518;DHT22;12678;51.336;12.406;2022-08-30T08:19:31;25.10;99.60
24518;DHT22;12678;51.336;12.406;2022-08-30T08:21:56;25.00;99.90
24518;DHT22;12678;51.336;12.406;2022-08-30T08:24:27;25.10;99.90
24518;DHT22;12678;51.336;12.406;2022-08-30T08:26:53;25.40;99.90
24518;DHT22;12678;51.336;12.406;2022-08-30T08:29:19;25.30;99.90
24518;DHT22;12678;51.336;12.406;2022-08-30T08:31:44;25.60;99.90
24518;DHT22;12678;51.336;12.406;2022-08-30T08:34:11;25.80;99.60
24518;DHT22;12678;51.336;12.406;2022-08-30T08:36:37;26.00;99.10
24518;DHT22;12678;51.336;12.406;2022-08-30T08:39:03;26.30;99.30
24518;DHT22;12678;51.336;12.406;2022-08-30T08:44:20;26.30;98.80
24518;DHT22;12678;51.336;12.406;2022-08-30T08:46:54;26.30;98.30
24518;DHT22;12678;51.336;12.406;2022-08-30T08:49:21;26.40;97.80
24518;DHT22;12678;51.336;12.406;2022-08-30T08:51:46;26.30;97.70
24518;DHT22;12678;51.336;12.406;2022-08-30T08:54:48;26.20;97.80
24518;DHT22;12678;51.336;12.406;2022-08-30T08:57:15;26.00;97.60
24518;DHT22;12678;51.336;12.406;2022-08-30T08:59:41;26.00;97.70
24518;DHT22;12678;51.336;12.406;2022-08-30T09:02:18;26.20;97.40
24518;DHT22;12678;51.336;12.406;2022-08-30T09:04:46;26.30;97.40
24518;DHT22;12678;51.336;12.406;2022-08-30T09:07:20;26.10;96.50
24518;DHT22;12678;51.336;12.406;2022-08-30T09:09:46;26.20;96.70
24518;DHT22;12678;51.336;12.406;2022-08-30T09:12:12;26.30;96.30
24518;DHT22;12678;51.336;12.406;2022-08-30T09:14:39;26.00;97.00
24518;DHT22;12678;51.336;12.406;2022-08-30T09:17:09;25.90;96.60
24518;DHT22;12678;51.336;12.406;2022-08-30T09:19:45;25.90;96.80
24518;DHT22;12678;51.336;12.406;2022-08-30T09:24:43;25.80;97.00
24518;DHT22;12678;51.336;12.406;2022-08-30T09:27:17;25.70;96.80
24518;DHT22;12678;51.336;12.406;2022-08-30T09:29:50;25.80;96.30
24518;DHT22;12678;51.336;12.406;2022-08-30T09:32:24;26.00;96.50
24518;DHT22;12678;51.336;12.406;2022-08-30T09:34:49;25.70;95.80
24518;DHT22;12678;51.336;12.406;2022-08-30T09:37:25;25.80;96.40
24518;DHT22;12678;51.336;12.406;2022-08-30T09:39:51;25.90;96.50
24518;DHT22;12678;51.336;12.406;2022-08-30T09:42:19;26.00;96.20
24518;DHT22;12678;51.336;12.406;2022-08-30T09:44:44;26.10;96.00
24518;DHT22;12678;51.336;12.406;2022-08-30T09:47:28;25.90;95.90
24518;DHT22;12678;51.336;12.406;2022-08-30T09:53:08;25.20;96.70
24518;DHT22;12678;51.336;12.406;2022-08-30T09:55:46;24.80;97.30
24518;DHT22;12678;51.336;12.406;2022-08-30T09:58:35;24.70;97.70
24518;DHT22;12678;51.336;12.406;2022-08-30T10:03:52;24.40;97.80
24518;DHT22;12678;51.336;12.406;2022-08-30T10:06:27;24.30;98.10
24518;DHT22;12678;51.336;12.406;2022-08-30T10:08:57;24.10;98.50
24518;DHT22;12678;51.336;12.406;2022-08-30T10:17:12;24.40;98.50
24518;DHT22;12678;51.336;12.406;2022-08-30T10:22:29;24.30;98.70
24518;DHT22;12678;51.336;12.406;2022-08-30T10:25:04;24.20;99.00
24518;DHT22;12678;51.336;12.406;2022-08-30T10:27:33;24.10;98.90
24518;DHT22;12678;51.336;12.406;2022-08-30T10:30:17;24.20;98.90
24518;DHT22;12678;51.336;12.406;2022-08-30T10:35:09;24.30;98.70
24518;DHT22;12678;51.336;12.406;2022-08-30T10:37:37;24.50;98.90
24518;DHT22;12678;51.336;12.406;2022-08-30T10:40:07;24.60;98.50
24518;DHT22;12678;51.336;12.406;2022-08-30T10:42:53;24.70;98.20
24518;DHT22;12678;51.336;12.406;2022-08-30T10:45:20;24.60;98.40
24518;DHT22;12678;51.336;12.406;2022-08-30T11:16:58;24.70;98.50
24518;DHT22;12678;51.336;12.406;2022-08-30T11:19:36;23.80;99.10
24518;DHT22;12678;51.336;12.406;2022-08-30T11:22:13;23.80;99.30
24518;DHT22;12678;51.336;12.406;2022-08-30T11:24:57;23.80;99.30
24518;DHT22;12678;51.336;12.406;2022-08-30T11:27:45;23.90;99.90
24518;DHT22;12678;51.336;12.406;2022-08-30T11:30:45;23.90;99.60
24518;DHT22;12678;51.336;12.406;2022-08-30T11:45:52;24.30;96.50
24518;DHT22;12678;51.336;12.406;2022-08-30T11:48:39;24.30;96.60
24518;DHT22;12678;51.336;12.406;2022-08-30T11:51:08;24.30;96.70
24518;DHT22;12678;51.336;12.406;2022-08-30T11:53:43;24.40;97.60
24518;DHT22;12678;51.336;12.406;2022-08-30T11:56:21;24.30;98.00
24518;DHT22;12678;51.336;12.406;2022-08-30T12:03:42;24.30;98.50
24518;DHT22;12678;51.336;12.406;2022-08-30T12:06:09;24.20;98.80
24518;DHT22;12678;51.336;12.406;2022-08-30T12:08:39;24.10;99.20
24518;DHT22;12678;51.336;12.406;2022-08-30T12:11:06;24.10;99.40
24518;DHT22;12678;51.336;12.406;2022-08-30T12:18:25;23.80;99.90
24518;DHT22;12678;51.336;12.406;2022-08-30T12:20:52;23.90;99.90
24518;DHT22;12678;51.336;12.406;2022-08-30T12:23:19;23.90;99.90
24518;DHT22;12678;51.336;12.406;2022-08-30T12:25:45;23.90;99.90
24518;DHT22;12678;51.336;12.406;2022-08-30T12:28:12;23.80;99.90
24518;DHT22;12678;51.336;12.406;2022-08-30T12:30:38;23.80;99.90
24518;DHT22;12678;51.336;12.406;2022-08-30T12:33:05;23.50;99.90
24518;DHT22;12678;51.336;12.406;2022-08-30T12:35:32;23.30;99.90
24518;DHT22;12678;51.336;12.406;2022-08-30T12:38:00;23.20;99.90
24518;DHT22;12678;51.336;12.406;2022-08-30T12:40:26;23.20;99.90
24518;DHT22;12678;51.336;12.406;2022-08-30T12:42:54;23.40;99.90
24518;DHT22;12678;51.336;12.406;2022-08-30T12:45:20;23.30;99.90
24518;DHT22;12678;51.336;12.406;2022-08-30T12:47:51;23.10;99.90
24518;DHT22;12678;51.336;12.406;2022-08-30T12:50:19;23.10;99.90
24518;DHT22;12678;51.336;12.406;2022-08-30T12:52:46;23.20;99.90
24518;DHT22;12678;51.336;12.406;2022-08-30T12:57:39;23.40;99.90
24518;DHT22;12678;51.336;12.406;2022-08-30T13:00:06;23.30;99.90
24518;DHT22;12678;51.336;12.406;2022-08-30T13:02:43;23.30;99.90
24518;DHT22;12678;51.336;12.406;2022-08-30T13:07:52;23.40;99.90
24518;DHT22;12678;51.336;12.406;2022-08-30T13:10:31;23.40;99.90
24518;DHT22;12678;51.336;12.406;2022-08-30T13:13:01;23.50;99.90
24518;DHT22;12678;51.336;12.406;2022-08-30T13:15:28;23.50;99.90
24518;DHT22;12678;51.336;12.406;2022-08-30T13:20:38;23.30;99.90
24518;DHT22;12678;51.336;12.406;2022-08-30T13:23:05;23.30;99.90
24518;DHT22;12678;51.336;12.406;2022-08-30T13:25:31;23.10;99.90
24518;DHT22;12678;51.336;12.406;2022-08-30T13:27:56;23.00;99.90
24518;DHT22;12678;51.336;12.406;2022-08-30T13:30:23;23.10;99.90
24518;DHT22;12678;51.336;12.406;2022-08-30T13:32:49;23.10;99.90
24518;DHT22;12678;51.336;12.406;2022-08-30T13:35:14;23.00;99.90
24518;DHT22;12678;51.336;12.406;2022-08-30T13:37:40;22.90;99.90
24518;DHT22;12678;51.336;12.406;2022-08-30T13:40:07;23.00;99.90
24518;DHT22;12678;51.336;12.406;2022-08-30T13:42:33;22.90;99.90
24518;DHT22;12678;51.336;12.406;2022-08-30T13:44:58;23.00;99.90
24518;DHT22;12678;51.336;12.406;2022-08-30T13:47:23;22.90;99.90
24518;DHT22;12678;51.336;12.406;2022-08-30T13:49:49;23.00;99.90
24518;DHT22;12678;51.336;12.406;2022-08-30T13:52:16;23.10;99.90
24518;DHT22;12678;51.336;12.406;2022-08-30T13:54:42;23.10;99.90
24518;DHT22;12678;51.336;12.406;2022-08-30T13:57:07;23.10;99.90
24518;DHT22;12678;51.336;12.406;2022-08-30T13:59:33;23.20;99.90
24518;DHT22;12678;51.336;12.406;2022-08-30T14:01:59;23.10;99.90
24518;DHT22;12678;51.336;12.406;2022-08-30T14:04:25;23.10;99.90
24518;DHT22;12678;51.336;12.406;2022-08-30T14:06:50;23.20;99.90
24518;DHT22;12678;51.336;12.406;2022-08-30T14:09:16;23.30;99.90
24518;DHT22;12678;51.336;12.406;2022-08-30T14:11:41;23.40;99.90
24518;DHT22;12678;51.336;12.406;2022-08-30T14:14:07;23.40;99.90
24518;DHT22;12678;51.336;12.406;2022-08-30T14:16:33;23.40;99.90
24518;DHT22;12678;51.336;12.406;2022-08-30T14:18:59;23.10;99.90
24518;DHT22;12678;51.336;12.406;2022-08-30T14:21:24;23.10;99.90
24518;DHT22;12678;51.336;12.406;2022-08-30T14:23:51;23.10;99.90
24518;DHT22;12678;51.336;12.406;2022-08-30T14:26:18;23.10;99.90
24518;DHT22;12678;51.336;12.406;2022-08-30T14:28:44;23.00;99.90
24518;DHT22;12678;51.336;12.406;2022-08-30T14:31:10;22.90;99.90
24518;DHT22;12678;51.336;12.406;2022-08-30T14:33:35;23.00;99.90
24518;DHT22;12678;51.336;12.406;2022-08-30T14:36:01;23.00;99.90
24518;DHT22;12678;51.336;12.406;2022-08-30T14:38:27;23.00;99.90
24518;DHT22;12678;51.336;12.406;2022-08-30T14:40:52;23.10;99.90
24518;DHT22;12678;51.336;12.406;2022-08-30T14:43:18;23.20;99.90
24518;DHT22;12678;51.336;12.406;2022-08-30T14:45:43;23.20;99.90
24518;DHT22;12678;51.336;12.406;2022-08-30T14:48:09;23.20;99.90
24518;DHT22;12678;51.336;12.406;2022-08-30T14:50:35;23.10;99.90
24518;DHT22;12678;51.336;12.406;2022-08-30T14:53:00;23.20;99.90
24518;DHT22;12678;51.336;12.406;2022-08-30T14:55:26;23.20;99.90
24518;DHT22;12678;51.336;12.406;2022-08-30T14:57:53;23.20;99.90
24518;DHT22;12678;51.336;12.406;2022-08-30T15:00:19;23.30;99.90
24518;DHT22;12678;51.336;12.406;2022-08-30T15:02:44;23.10;99.90
24518;DHT22;12678;51.336;12.406;2022-08-30T15:05:10;23.10;99.90
24518;DHT22;12678;51.336;12.406;2022-08-30T15:07:35;22.80;99.90
24518;DHT22;12678;51.336;12.406;2022-08-30T15:10:01;22.80;99.90
24518;DHT22;12678;51.336;12.406;2022-08-30T15:12:26;22.80;99.90
24518;DHT22;12678;51.336;12.406;2022-08-30T15:14:52;22.70;99.90
24518;DHT22;12678;51.336;12.406;2022-08-30T15:17:17;22.80;99.90
24518;DHT22;12678;51.336;12.406;2022-08-30T15:19:43;22.80;99.90
24518;DHT22;12678;51.336;12.406;2022-08-30T15:22:09;22.80;99.90
24518;DHT22;12678;51.336;12.406;2022-08-30T15:24:34;22.80;99.90
24518;DHT22;12678;51.336;12.406;2022-08-30T15:27:00;22.80;99.90
24518;DHT22;12678;51.336;12.406;2022-08-30T15:29:26;22.80;99.90
24518;DHT22;12678;51.336;12.406;2022-08-30T15:31:52;22.80;99.90
24518;DHT22;12678;51.336;12.406;2022-08-30T15:34:19;22.80;99.90
24518;DHT22;12678;51.336;12.406;2022-08-30T15:36:45;22.80;99.90
24518;DHT22;12678;51.336;12.406;2022-08-30T15:39:11;22.80;99.90
24518;DHT22;12678;51.336;12.406;2022-08-30T15:41:37;22.90;99.90
24518;DHT22;12678;51.336;12.406;2022-08-30T15:44:04;22.90;99.90
24518;DHT22;12678;51.336;12.406;2022-08-30T15:46:30;23.00;99.90
24518;DHT22;12678;51.336;12.406;2022-08-30T15:48:58;23.00;99.90
24518;DHT22;12678;51.336;12.406;2022-08-30T15:51:24;23.10;99.90
24518;DHT22;12678;51.336;12.406;2022-08-30T15:53:50;23.00;99.90
24518;DHT22;12678;51.336;12.406;2022-08-30T15:56:16;23.00;99.90
24518;DHT22;12678;51.336;12.406;2022-08-30T15:58:41;22.90;99.90
24518;DHT22;12678;51.336;12.406;2022-08-30T16:01:07;23.00;99.90
24518;DHT22;12678;51.336;12.406;2022-08-30T16:03:33;23.00;99.90
24518;DHT22;12678;51.336;12.406;2022-08-30T16:05:59;23.00;99.90
24518;DHT22;12678;51.336;12.406;2022-08-30T16:08:25;23.00;99.90
24518;DHT22;12678;51.336;12.406;2022-08-30T16:10:51;23.00;99.90
24518;DHT22;12678;51.336;12.406;2022-08-30T16:13:16;23.00;99.90
24518;DHT22;12678;51.336;12.406;2022-08-30T16:15:42;22.90;99.90
24518;DHT22;12678;51.336;12.406;2022-08-30T16:18:11;22.80;99.90
24518;DHT22;12678;51.336;12.406;2022-08-30T16:20:40;22.90;99.90
24518;DHT22;12678;51.336;12.406;2022-08-30T16:23:06;22.90;99.90
24518;DHT22;12678;51.336;12.406;2022-08-30T16:25:32;22.80;99.90
24518;DHT22;12678;51.336;12.406;2022-08-30T16:27:57;22.80;99.90
24518;DHT22;12678;51.336;12.406;2022-08-30T16:30:23;22.80;99.90
24518;DHT22;12678;51.336;12.406;2022-08-30T16:32:48;22.70;99.90
24518;DHT22;12678;51.336;12.406;2022-08-30T16:35:14;22.80;99.90
24518;DHT22;12678;51.336;12.406;2022-08-30T16:37:39;22.70;99.90
24518;DHT22;12678;51.336;12.406;2022-08-30T16:40:05;22.70;99.90
24518;DHT22;12678;51.336;12.406;2022-08-30T16:42:31;22.70;99.90
24518;DHT22;12678;51.336;12.406;2022-08-30T16:44:56;22.70;99.90
24518;DHT22;12678;51.336;12.406;2022-08-30T16:47:22;22.80;99.90